createdAt,value
2019-02-07T00:00:13.764Z,8.90
2019-02-07T00:02:44.147Z,8.90
2019-02-07T00:05:15.001Z,8.90
2019-02-07T00:07:45.634Z,8.90
2019-02-07T00:10:17.975Z,9.00
2019-02-07T00:12:48.571Z,9.00
2019-02-07T00:15:19.564Z,8.90
2019-02-07T00:17:50.388Z,8.80
2019-02-07T00:20:20.892Z,8.90
2019-02-07T00:22:51.279Z,8.80
2019-02-07T00:25:21.674Z,8.90
2019-02-07T00:27:52.785Z,8.80
2019-02-07T00:30:23.700Z,8.80
2019-02-07T00:32:56.681Z,8.80
2019-02-07T00:35:27.050Z,8.80
2019-02-07T00:37:57.486Z,8.80
2019-02-07T00:40:28.222Z,8.80
2019-02-07T00:42:59.149Z,8.80
2019-02-07T00:45:29.886Z,8.90
2019-02-07T00:48:00.302Z,8.80
2019-02-07T00:50:31.227Z,8.80
2019-02-07T00:53:01.716Z,8.80
2019-02-07T00:55:32.046Z,8.70
2019-02-07T00:58:02.454Z,8.70
2019-02-07T01:00:32.934Z,8.70
2019-02-07T01:03:10.899Z,8.70
2019-02-07T01:05:41.856Z,8.60
2019-02-07T01:08:12.549Z,8.60
2019-02-07T01:10:43.299Z,8.50
2019-02-07T01:13:14.430Z,8.60
2019-02-07T01:15:44.981Z,8.60
2019-02-07T01:18:24.055Z,8.60
2019-02-07T01:20:54.403Z,8.50
2019-02-07T01:23:24.837Z,8.50
2019-02-07T01:25:55.762Z,8.50
2019-02-07T01:28:26.133Z,8.60
2019-02-07T01:30:56.757Z,8.60
2019-02-07T01:33:27.612Z,8.60
2019-02-07T01:35:58.182Z,8.50
2019-02-07T01:38:28.566Z,8.70
2019-02-07T01:40:59.187Z,8.60
2019-02-07T01:43:29.515Z,8.60
2019-02-07T01:46:08.084Z,8.70
2019-02-07T01:48:38.432Z,8.60
2019-02-07T01:51:08.772Z,8.60
2019-02-07T01:53:39.446Z,8.70
2019-02-07T01:56:09.961Z,8.60
2019-02-07T01:58:40.382Z,8.60
2019-02-07T02:01:10.704Z,8.60
2019-02-07T02:03:41.648Z,8.50
2019-02-07T02:06:11.997Z,8.50
2019-02-07T02:08:42.673Z,8.60
2019-02-07T02:11:13.504Z,8.60
2019-02-07T02:13:43.909Z,8.60
2019-02-07T02:16:14.259Z,8.60
2019-02-07T02:18:44.551Z,8.60
2019-02-07T02:21:14.835Z,8.60
2019-02-07T02:23:45.653Z,8.70
2019-02-07T02:26:16.413Z,8.70
2019-02-07T02:28:47.060Z,8.70
2019-02-07T02:31:17.426Z,8.60
2019-02-07T02:33:48.097Z,8.60
2019-02-07T02:36:18.589Z,8.60
2019-02-07T02:38:49.361Z,8.60
2019-02-07T02:41:20.174Z,8.60
2019-02-07T02:43:50.522Z,8.50
2019-02-07T02:46:21.458Z,8.60
2019-02-07T02:48:52.043Z,8.60
2019-02-07T02:51:22.433Z,8.60
2019-02-07T02:53:54.566Z,8.60
2019-02-07T02:56:25.016Z,8.60
2019-02-07T02:58:55.420Z,8.60
2019-02-07T03:01:37.719Z,8.50
2019-02-07T03:04:36.221Z,8.50
2019-02-07T03:07:24.573Z,8.50
2019-02-07T03:10:26.153Z,8.40
2019-02-07T03:13:23.856Z,8.40
2019-02-07T03:16:26.397Z,8.30
2019-02-07T03:19:09.556Z,8.20
2019-02-07T03:21:50.050Z,8.20
2019-02-07T03:24:37.624Z,8.30
2019-02-07T03:27:30.181Z,8.30
2019-02-07T03:30:18.184Z,8.10
2019-02-07T03:33:20.964Z,8.10
2019-02-07T03:36:03.634Z,8.00
2019-02-07T03:38:49.183Z,8.00
2019-02-07T03:41:41.907Z,8.00
2019-02-07T03:44:33.969Z,8.00
2019-02-07T03:47:31.747Z,8.00
2019-02-07T03:50:22.947Z,7.90
2019-02-07T03:53:15.331Z,7.90
2019-02-07T03:56:10.388Z,7.90
2019-02-07T03:59:01.771Z,7.80
2019-02-07T04:01:45.229Z,7.80
2019-02-07T04:04:26.908Z,7.80
2019-02-07T04:07:28.389Z,7.70
2019-02-07T04:10:23.732Z,7.70
2019-02-07T04:13:25.708Z,7.70
2019-02-07T04:16:15.308Z,7.80
2019-02-07T04:19:15.417Z,7.90
2019-02-07T04:22:03.292Z,7.80
2019-02-07T04:25:05.156Z,7.90
2019-02-07T04:27:53.333Z,7.90
2019-02-07T04:30:36.574Z,7.80
2019-02-07T04:33:35.776Z,7.80
2019-02-07T04:36:37.380Z,7.80
2019-02-07T04:39:16.622Z,7.80
2019-02-07T04:42:21.069Z,8.00
2019-02-07T04:45:04.731Z,7.80
2019-02-07T04:47:54.670Z,7.90
2019-02-07T04:50:44.083Z,7.90
2019-02-07T04:53:35.141Z,7.90
2019-02-07T04:56:36.700Z,7.90
2019-02-07T04:59:26.312Z,7.90
2019-02-07T05:02:30.807Z,7.90
2019-02-07T05:05:12.922Z,7.90
2019-02-07T05:07:59.656Z,8.00
2019-02-07T05:11:07.321Z,7.90
2019-02-07T05:14:02.690Z,7.80
2019-02-07T05:16:49.431Z,7.70
2019-02-07T05:19:39.061Z,7.80
2019-02-07T05:22:21.450Z,7.80
2019-02-07T05:25:01.786Z,7.80
2019-02-07T05:27:52.468Z,7.80
2019-02-07T05:30:40.880Z,7.80
2019-02-07T05:33:36.099Z,7.80
2019-02-07T05:36:37.784Z,7.90
2019-02-07T05:39:19.848Z,7.90
2019-02-07T05:42:22.741Z,7.90
2019-02-07T05:45:15.643Z,7.90
2019-02-07T05:48:12.023Z,7.90
2019-02-07T05:50:58.755Z,8.10
2019-02-07T05:53:36.716Z,8.10
2019-02-07T05:56:29.059Z,8.10
2019-02-07T05:59:22.253Z,8.10
2019-02-07T06:02:18.101Z,8.10
2019-02-07T06:05:07.615Z,8.10
2019-02-07T06:07:48.349Z,8.20
2019-02-07T06:10:40.632Z,8.20
2019-02-07T06:13:24.180Z,8.10
2019-02-07T06:16:13.648Z,8.10
2019-02-07T06:18:59.674Z,8.30
2019-02-07T06:21:48.664Z,8.20
2019-02-07T06:24:46.263Z,8.20
2019-02-07T06:27:27.141Z,8.30
2019-02-07T06:30:22.915Z,8.30
2019-02-07T06:33:18.510Z,8.30
2019-02-07T06:36:08.101Z,8.30
2019-02-07T06:39:00.457Z,8.40
2019-02-07T06:41:48.659Z,8.40
2019-02-07T06:44:38.974Z,8.50
2019-02-07T06:47:32.372Z,8.40
2019-02-07T06:50:22.041Z,8.40
2019-02-07T06:53:22.446Z,8.50
2019-02-07T06:56:11.779Z,8.50
2019-02-07T06:59:05.877Z,8.50
2019-02-07T07:02:04.735Z,8.60
2019-02-07T07:04:57.145Z,8.60
2019-02-07T07:07:54.552Z,8.60
2019-02-07T07:10:42.719Z,8.70
2019-02-07T07:13:22.742Z,8.70
2019-02-07T07:16:18.152Z,8.80
2019-02-07T07:19:13.979Z,8.80
2019-02-07T07:22:09.883Z,8.80
2019-02-07T07:25:00.036Z,8.80
2019-02-07T07:27:58.228Z,8.90
2019-02-07T07:30:40.067Z,9.00
2019-02-07T07:33:26.305Z,9.00
2019-02-07T07:36:22.799Z,9.00
2019-02-07T07:39:02.754Z,9.00
2019-02-07T07:41:58.230Z,9.00
2019-02-07T07:44:44.197Z,9.00
2019-02-07T07:47:35.799Z,9.00
2019-02-07T07:50:28.219Z,9.00
2019-02-07T07:53:23.532Z,8.90
2019-02-07T07:56:07.004Z,8.90
2019-02-07T07:58:53.873Z,9.10
2019-02-07T08:01:41.443Z,9.00
2019-02-07T08:04:33.623Z,9.00
2019-02-07T08:07:22.672Z,9.10
2019-02-07T08:10:15.082Z,9.10
2019-02-07T08:12:55.454Z,9.20
2019-02-07T08:15:44.756Z,9.20
2019-02-07T08:18:43.648Z,9.20
2019-02-07T08:21:32.458Z,9.30
2019-02-07T08:24:21.795Z,9.30
2019-02-07T08:27:17.284Z,9.40
2019-02-07T08:30:05.155Z,9.40
2019-02-07T08:32:54.572Z,9.40
2019-02-07T08:35:43.169Z,9.40
2019-02-07T08:38:28.301Z,9.30
2019-02-07T08:41:16.552Z,9.40
2019-02-07T08:44:04.886Z,9.30
2019-02-07T08:46:52.140Z,9.40
2019-02-07T08:49:46.036Z,9.30
2019-02-07T08:52:47.341Z,9.30
2019-02-07T08:55:31.273Z,9.50
2019-02-07T08:58:26.823Z,9.60
2019-02-07T09:01:15.601Z,9.60
2019-02-07T09:04:17.030Z,9.60
2019-02-07T09:07:18.475Z,9.80
2019-02-07T09:10:17.201Z,9.70
2019-02-07T09:13:16.544Z,9.60
2019-02-07T09:16:00.388Z,9.60
2019-02-07T09:18:48.532Z,9.60
2019-02-07T09:21:45.621Z,9.70
2019-02-07T09:24:32.091Z,9.90
2019-02-07T09:27:20.743Z,9.80
2019-02-07T09:30:28.527Z,9.90
2019-02-07T09:33:15.885Z,9.90
2019-02-07T09:36:05.796Z,9.70
2019-02-07T09:38:54.272Z,9.80
2019-02-07T09:41:46.087Z,9.80
2019-02-07T09:44:38.394Z,9.90
2019-02-07T09:47:25.756Z,9.90
2019-02-07T09:50:09.683Z,9.90
2019-02-07T09:52:57.507Z,10.00
2019-02-07T09:55:45.859Z,10.00
2019-02-07T09:58:37.186Z,10.10
2019-02-07T10:01:27.421Z,10.10
2019-02-07T10:04:05.863Z,10.20
2019-02-07T10:06:53.882Z,10.50
2019-02-07T10:09:35.505Z,10.50
2019-02-07T10:12:24.254Z,10.70
2019-02-07T10:15:14.380Z,10.70
2019-02-07T10:18:16.646Z,10.50
2019-02-07T10:21:10.992Z,10.60
2019-02-07T10:24:03.070Z,10.70
2019-02-07T10:26:55.103Z,10.80
2019-02-07T10:29:55.021Z,10.60
2019-02-07T10:32:53.466Z,10.60
2019-02-07T10:35:34.792Z,10.50
2019-02-07T10:38:15.978Z,10.50
2019-02-07T10:41:12.110Z,10.50
2019-02-07T10:44:04.477Z,10.70
2019-02-07T10:47:03.416Z,10.80
2019-02-07T10:49:58.920Z,11.00
2019-02-07T10:52:51.043Z,11.50
2019-02-07T10:55:32.360Z,11.80
2019-02-07T10:58:18.306Z,11.70
2019-02-07T11:00:59.345Z,11.50
2019-02-07T11:03:42.133Z,11.60
2019-02-07T11:06:29.389Z,11.60
2019-02-07T11:09:18.675Z,11.70
2019-02-07T11:12:08.448Z,11.80
2019-02-07T11:15:04.979Z,11.90
2019-02-07T11:17:53.082Z,11.70
2019-02-07T11:21:00.402Z,11.60
2019-02-07T11:23:52.473Z,11.80
2019-02-07T11:26:35.991Z,11.80
2019-02-07T11:29:28.164Z,11.70
2019-02-07T11:32:23.340Z,11.80
2019-02-07T11:35:06.893Z,11.80
2019-02-07T11:37:55.061Z,12.00
2019-02-07T11:40:41.683Z,11.90
2019-02-07T11:43:20.894Z,11.80
2019-02-07T11:46:09.186Z,11.80
2019-02-07T11:49:07.784Z,12.10
2019-02-07T11:51:56.491Z,12.00
2019-02-07T11:54:35.409Z,12.20
2019-02-07T11:57:36.998Z,12.10
2019-02-07T12:00:35.431Z,12.20
2019-02-07T12:03:18.482Z,12.10
2019-02-07T12:06:08.739Z,12.10
2019-02-07T12:08:55.883Z,12.30
2019-02-07T12:11:37.816Z,12.20
2019-02-07T12:14:35.705Z,12.10
2019-02-07T12:17:34.486Z,12.30
2019-02-07T12:20:24.953Z,12.10
2019-02-07T12:23:09.154Z,12.00
2019-02-07T12:26:05.787Z,12.10
2019-02-07T12:28:47.851Z,11.90
2019-02-07T12:31:35.953Z,12.00
2019-02-07T12:34:23.590Z,12.10
2019-02-07T12:37:03.254Z,12.40
2019-02-07T12:39:59.688Z,11.90
2019-02-07T12:42:51.783Z,11.90
2019-02-07T12:45:44.142Z,11.90
2019-02-07T12:48:35.453Z,12.10
2019-02-07T12:51:25.969Z,12.00
2019-02-07T12:54:25.879Z,11.60
2019-02-07T12:57:04.189Z,11.90
2019-02-07T13:00:05.977Z,12.10
2019-02-07T13:02:52.705Z,11.90
2019-02-07T13:05:51.230Z,12.20
2019-02-07T13:08:38.670Z,12.10
2019-02-07T13:11:41.572Z,12.10
2019-02-07T13:14:37.658Z,12.00
2019-02-07T13:17:25.973Z,12.20
2019-02-07T13:20:04.073Z,12.10
2019-02-07T13:22:44.194Z,11.80
2019-02-07T13:25:40.863Z,12.00
2019-02-07T13:28:19.929Z,11.70
2019-02-07T13:31:14.098Z,12.00
2019-02-07T13:34:02.317Z,12.10
2019-02-07T13:36:49.396Z,11.90
2019-02-07T13:39:30.160Z,12.10
2019-02-07T13:42:25.747Z,11.90
2019-02-07T13:45:16.647Z,12.10
2019-02-07T13:48:05.995Z,12.10
2019-02-07T13:50:53.788Z,12.20
2019-02-07T13:53:42.352Z,11.90
2019-02-07T13:56:31.631Z,11.90
2019-02-07T13:59:20.938Z,12.00
2019-02-07T14:02:12.439Z,12.00
2019-02-07T14:05:17.088Z,11.90
2019-02-07T14:08:12.282Z,12.10
2019-02-07T14:11:20.688Z,11.90
2019-02-07T14:14:10.251Z,11.90
2019-02-07T14:17:11.743Z,12.10
2019-02-07T14:20:03.863Z,12.00
2019-02-07T14:22:51.019Z,11.90
2019-02-07T14:25:58.391Z,11.80
2019-02-07T14:28:38.897Z,11.90
2019-02-07T14:31:27.209Z,11.90
2019-02-07T14:34:31.215Z,11.90
2019-02-07T14:37:13.061Z,11.90
2019-02-07T14:40:14.826Z,12.00
2019-02-07T14:43:14.026Z,11.80
2019-02-07T14:45:56.793Z,11.70
2019-02-07T14:48:27.861Z,11.70
2019-02-07T14:50:58.316Z,11.80
2019-02-07T14:53:29.507Z,11.90
2019-02-07T14:55:59.855Z,11.70
2019-02-07T14:58:30.517Z,11.90
2019-02-07T15:01:00.931Z,11.80
2019-02-07T15:03:31.692Z,11.70
2019-02-07T15:06:02.029Z,11.60
2019-02-07T15:08:32.624Z,11.60
2019-02-07T15:11:02.983Z,11.80
2019-02-07T15:13:33.351Z,11.70
2019-02-07T15:16:04.621Z,11.70
2019-02-07T15:18:35.148Z,11.60
2019-02-07T15:21:05.686Z,11.60
2019-02-07T15:23:36.031Z,11.40
2019-02-07T15:26:07.298Z,11.60
2019-02-07T15:28:37.659Z,11.70
2019-02-07T15:31:07.967Z,11.70
2019-02-07T15:33:38.353Z,11.40
2019-02-07T15:36:11.621Z,11.50
2019-02-07T15:38:42.074Z,11.40
2019-02-07T15:41:12.893Z,11.40
2019-02-07T15:43:43.483Z,11.40
2019-02-07T15:46:14.149Z,11.30
2019-02-07T15:48:44.521Z,11.40
2019-02-07T15:51:15.531Z,11.30
2019-02-07T15:53:45.925Z,11.40
2019-02-07T15:56:16.977Z,11.40
2019-02-07T15:58:55.002Z,11.30
2019-02-07T16:01:29.507Z,11.00
2019-02-07T16:04:21.859Z,11.20
2019-02-07T16:06:52.437Z,11.10
2019-02-07T16:09:22.790Z,11.10
2019-02-07T16:11:53.134Z,11.10
2019-02-07T16:14:23.923Z,11.10
2019-02-07T16:17:20.081Z,11.10
2019-02-07T16:19:50.459Z,11.00
2019-02-07T16:22:21.666Z,11.10
2019-02-07T16:24:52.288Z,11.10
2019-02-07T16:27:24.533Z,11.10
2019-02-07T16:29:54.880Z,11.10
2019-02-07T16:32:25.278Z,11.10
2019-02-07T16:34:55.895Z,11.10
2019-02-07T16:37:28.289Z,11.00
2019-02-07T16:39:59.552Z,11.30
2019-02-07T16:42:30.095Z,11.00
2019-02-07T16:45:00.826Z,11.10
2019-02-07T16:47:31.181Z,11.10
2019-02-07T16:50:01.926Z,11.10
2019-02-07T16:52:32.681Z,11.00
2019-02-07T16:55:03.290Z,11.00
2019-02-07T16:57:33.897Z,10.80
2019-02-07T17:00:06.531Z,10.90
2019-02-07T17:02:37.925Z,10.80
2019-02-07T17:05:09.732Z,10.80
2019-02-07T17:07:48.544Z,10.90
2019-02-07T17:10:23.485Z,10.80
2019-02-07T17:12:55.169Z,10.80
2019-02-07T17:15:25.589Z,10.70
2019-02-07T17:17:56.522Z,10.90
2019-02-07T17:20:29.927Z,11.10
2019-02-07T17:23:02.909Z,11.00
2019-02-07T17:25:33.695Z,10.90
2019-02-07T17:28:04.816Z,10.90
2019-02-07T17:30:36.743Z,11.00
2019-02-07T17:33:07.582Z,10.90
2019-02-07T17:35:38.144Z,10.90
2019-02-07T17:38:12.026Z,10.80
2019-02-07T17:40:42.465Z,10.90
2019-02-07T17:43:14.378Z,10.90
2019-02-07T17:45:45.726Z,10.80
2019-02-07T17:48:16.113Z,10.70
2019-02-07T17:50:46.561Z,10.80
2019-02-07T17:53:16.933Z,10.80
2019-02-07T17:55:47.243Z,10.80
2019-02-07T17:58:18.191Z,10.80
2019-02-07T18:00:57.114Z,10.70
2019-02-07T18:03:28.129Z,10.80
2019-02-07T18:05:58.498Z,10.90
2019-02-07T18:08:29.444Z,10.90
2019-02-07T18:10:59.912Z,10.80
2019-02-07T18:13:30.229Z,10.80
2019-02-07T18:16:01.159Z,10.70
2019-02-07T18:18:32.036Z,10.60
2019-02-07T18:21:05.490Z,10.50
2019-02-07T18:23:37.205Z,10.60
2019-02-07T18:26:07.550Z,10.50
2019-02-07T18:28:38.877Z,10.50
2019-02-07T18:31:09.330Z,10.50
2019-02-07T18:33:41.181Z,10.40
2019-02-07T18:36:12.126Z,10.40
2019-02-07T18:38:42.831Z,10.30
2019-02-07T18:41:13.589Z,10.30
2019-02-07T18:43:43.940Z,10.00
2019-02-07T18:46:14.743Z,10.10
2019-02-07T18:48:45.098Z,10.20
2019-02-07T18:51:15.664Z,10.00
2019-02-07T18:53:46.075Z,10.10
2019-02-07T18:56:16.403Z,10.20
2019-02-07T18:58:47.024Z,10.20
2019-02-07T19:01:19.485Z,10.20
2019-02-07T19:03:49.990Z,10.20
2019-02-07T19:06:23.446Z,10.20
2019-02-07T19:08:53.875Z,10.10
2019-02-07T19:11:24.549Z,10.20
2019-02-07T19:13:54.915Z,10.30
2019-02-07T19:16:25.996Z,10.20
2019-02-07T19:18:58.459Z,10.20
2019-02-07T19:21:28.837Z,10.20
2019-02-07T19:23:59.877Z,10.00
2019-02-07T19:26:30.193Z,10.00
2019-02-07T19:29:00.715Z,10.10
2019-02-07T19:31:31.029Z,10.10
2019-02-07T19:34:02.154Z,10.20
2019-02-07T19:36:32.848Z,10.20
2019-02-07T19:39:04.028Z,10.00
2019-02-07T19:41:34.905Z,10.10
2019-02-07T19:44:06.158Z,10.00
2019-02-07T19:46:37.435Z,9.70
2019-02-07T19:49:07.931Z,9.80
2019-02-07T19:51:38.313Z,9.90
2019-02-07T19:54:08.646Z,9.90
2019-02-07T19:56:39.086Z,10.00
2019-02-07T19:59:09.748Z,9.80
2019-02-07T20:01:40.267Z,10.00
2019-02-07T20:04:10.594Z,10.00
2019-02-07T20:06:41.578Z,10.10
2019-02-07T20:09:14.047Z,10.20
2019-02-07T20:11:45.073Z,9.90
2019-02-07T20:14:15.509Z,10.10
2019-02-07T20:16:45.828Z,10.00
2019-02-07T20:19:16.615Z,9.90
2019-02-07T20:21:46.989Z,9.80
2019-02-07T20:24:18.640Z,10.00
2019-02-07T20:26:49.187Z,9.80
2019-02-07T20:29:19.563Z,9.90
2019-02-07T20:31:49.924Z,9.80
2019-02-07T20:34:20.742Z,9.70
2019-02-07T20:36:51.096Z,9.80
2019-02-07T20:39:21.505Z,9.90
2019-02-07T20:41:52.371Z,10.00
2019-02-07T20:44:22.872Z,9.80
2019-02-07T20:46:53.295Z,9.80
2019-02-07T20:49:23.615Z,10.00
2019-02-07T20:51:53.961Z,10.10
2019-02-07T20:54:24.846Z,9.90
2019-02-07T20:56:55.911Z,10.00
2019-02-07T20:59:26.926Z,9.90
2019-02-07T21:01:57.255Z,9.90
2019-02-07T21:04:36.018Z,9.90
2019-02-07T21:07:08.425Z,9.80
2019-02-07T21:09:39.140Z,9.90
2019-02-07T21:12:09.573Z,9.90
2019-02-07T21:14:39.944Z,9.70
2019-02-07T21:17:10.671Z,9.70
2019-02-07T21:19:41.051Z,9.80
2019-02-07T21:22:11.508Z,9.70
2019-02-07T21:24:42.833Z,9.90
2019-02-07T21:27:13.235Z,9.70
2019-02-07T21:29:43.557Z,9.80
2019-02-07T21:32:13.897Z,9.90
2019-02-07T21:34:44.289Z,9.90
2019-02-07T21:37:14.610Z,9.80
2019-02-07T21:39:46.189Z,10.00
2019-02-07T21:42:16.561Z,9.90
2019-02-07T21:44:46.904Z,9.60
2019-02-07T21:47:17.438Z,9.80
2019-02-07T21:49:47.795Z,9.80
2019-02-07T21:52:18.514Z,9.80
2019-02-07T21:54:49.560Z,9.70
2019-02-07T21:57:19.954Z,9.70
2019-02-07T21:59:50.602Z,9.80
2019-02-07T22:02:21.170Z,9.70
2019-02-07T22:04:51.666Z,9.70
2019-02-07T22:07:22.044Z,9.80
2019-02-07T22:09:52.747Z,9.80
2019-02-07T22:12:23.817Z,9.80
2019-02-07T22:14:54.159Z,9.70
2019-02-07T22:17:24.510Z,9.60
2019-02-07T22:19:54.836Z,9.70
2019-02-07T22:22:25.913Z,9.60
2019-02-07T22:24:57.292Z,9.70
2019-02-07T22:27:27.637Z,9.80
2019-02-07T22:29:57.991Z,9.80
2019-02-07T22:32:28.366Z,9.80
2019-02-07T22:34:58.743Z,9.70
2019-02-07T22:37:29.305Z,9.70
2019-02-07T22:40:12.508Z,9.70
2019-02-07T22:42:47.776Z,9.80
2019-02-07T22:45:16.450Z,9.70
2019-02-07T22:47:47.969Z,9.60
2019-02-07T22:50:24.386Z,9.70
2019-02-07T22:52:56.987Z,9.80
2019-02-07T22:55:28.238Z,9.50
2019-02-07T22:57:58.687Z,9.70
2019-02-07T23:01:26.377Z,9.70
2019-02-07T23:04:02.545Z,9.70
2019-02-07T23:06:32.836Z,9.80
2019-02-07T23:09:04.690Z,9.60
2019-02-07T23:11:35.285Z,9.60
2019-02-07T23:14:06.662Z,9.70
2019-02-07T23:16:36.947Z,9.70
2019-02-07T23:19:08.487Z,9.50
2019-02-07T23:21:38.860Z,9.60
2019-02-07T23:24:09.617Z,9.50
2019-02-07T23:26:40.330Z,9.60
2019-02-07T23:29:10.907Z,9.60
2019-02-07T23:31:41.464Z,9.50
2019-02-07T23:34:12.057Z,9.60
2019-02-07T23:36:42.371Z,9.60
2019-02-07T23:39:13.389Z,9.70
2019-02-07T23:41:44.140Z,9.60
2019-02-07T23:44:14.515Z,9.40
2019-02-07T23:46:45.024Z,9.60
2019-02-07T23:49:15.442Z,9.70
2019-02-07T23:51:46.058Z,9.40
2019-02-07T23:54:16.408Z,9.40
2019-02-07T23:56:46.826Z,9.60
2019-02-07T23:59:17.472Z,9.60
